Airport View

Enter AWOS ICAO identifier for current METAR.

ex. KFNL

5 Aug 2020 13:46

TAF CYQH 051138Z 0512/0524 VRB03KT P6SM SCT070 BKN150 TEMPO 0512/0524 BKN070 RMK NXT FCST BY 051800Z